sensor_id;sensor_type;location;lat;lon;timestamp;pressure;altitude;pressure_sealevel;temperature;humidity
22649;BME280;11491;41.942;24.220;2022-08-02T00:02:27;89917.09;;;14.86;80.12
22649;BME280;11491;41.942;24.220;2022-08-02T00:04:53;89927.53;;;14.92;80.40
22649;BME280;11491;41.942;24.220;2022-08-02T00:07:20;89929.81;;;14.90;80.96
22649;BME280;11491;41.942;24.220;2022-08-02T00:09:48;89923.66;;;14.93;80.87
22649;BME280;11491;41.942;24.220;2022-08-02T00:12:15;89929.72;;;14.82;80.77
22649;BME280;11491;41.942;24.220;2022-08-02T00:14:42;89922.31;;;14.72;80.79
22649;BME280;11491;41.942;24.220;2022-08-02T00:17:09;89931.41;;;14.98;79.25
22649;BME280;11491;41.942;24.220;2022-08-02T00:19:36;89923.72;;;14.96;79.35
22649;BME280;11491;41.942;24.220;2022-08-02T00:22:03;89908.84;;;14.72;80.21
22649;BME280;11491;41.942;24.220;2022-08-02T00:24:29;89920.53;;;14.83;80.22
22649;BME280;11491;41.942;24.220;2022-08-02T00:26:58;89921.94;;;14.74;81.09
22649;BME280;11491;41.942;24.220;2022-08-02T00:29:25;89926.59;;;14.77;81.56
22649;BME280;11491;41.942;24.220;2022-08-02T00:31:52;89924.91;;;14.65;81.89
22649;BME280;11491;41.942;24.220;2022-08-02T00:34:19;89924.59;;;14.70;81.88
22649;BME280;11491;41.942;24.220;2022-08-02T00:36:45;89918.31;;;14.59;82.01
22649;BME280;11491;41.942;24.220;2022-08-02T00:39:12;89927.72;;;14.46;82.62
22649;BME280;11491;41.942;24.220;2022-08-02T00:41:44;89930.19;;;14.54;81.55
22649;BME280;11491;41.942;24.220;2022-08-02T00:44:14;89935.09;;;14.49;81.90
22649;BME280;11491;41.942;24.220;2022-08-02T00:46:41;89926.19;;;14.44;82.07
22649;BME280;11491;41.942;24.220;2022-08-02T00:49:08;89930.75;;;14.40;82.30
22649;BME280;11491;41.942;24.220;2022-08-02T00:51:35;89930.66;;;14.33;82.25
22649;BME280;11491;41.942;24.220;2022-08-02T00:54:02;89926.72;;;14.24;83.02
22649;BME280;11491;41.942;24.220;2022-08-02T00:56:29;89924.47;;;14.29;82.20
22649;BME280;11491;41.942;24.220;2022-08-02T00:58:56;89928.28;;;14.28;81.69
22649;BME280;11491;41.942;24.220;2022-08-02T01:01:24;89921.53;;;14.41;80.55
22649;BME280;11491;41.942;24.220;2022-08-02T01:04:03;89923.63;;;14.25;82.18
22649;BME280;11491;41.942;24.220;2022-08-02T01:06:30;89853.22;;;13.86;81.32
22649;BME280;11491;41.942;24.220;2022-08-02T01:08:58;89899.09;;;13.96;82.12
22649;BME280;11491;41.942;24.220;2022-08-02T01:11:25;89915.69;;;14.06;82.60
22649;BME280;11491;41.942;24.220;2022-08-02T01:13:52;89916.19;;;14.11;82.55
22649;BME280;11491;41.942;24.220;2022-08-02T01:16:27;89919.63;;;14.12;81.60
22649;BME280;11491;41.942;24.220;2022-08-02T01:19:01;89913.41;;;14.08;82.61
22649;BME280;11491;41.942;24.220;2022-08-02T01:21:41;89910.31;;;14.06;82.19
22649;BME280;11491;41.942;24.220;2022-08-02T01:24:34;89910.31;;;14.06;83.04
22649;BME280;11491;41.942;24.220;2022-08-02T01:27:09;89916.22;;;13.88;83.75
22649;BME280;11491;41.942;24.220;2022-08-02T01:29:50;89916.44;;;14.03;82.64
22649;BME280;11491;41.942;24.220;2022-08-02T01:32:24;89917.91;;;13.96;83.24
22649;BME280;11491;41.942;24.220;2022-08-02T01:34:57;89915.53;;;13.91;83.53
22649;BME280;11491;41.942;24.220;2022-08-02T01:37:28;89914.72;;;13.91;83.69
22649;BME280;11491;41.942;24.220;2022-08-02T01:40:03;89908.69;;;13.97;82.24
22649;BME280;11491;41.942;24.220;2022-08-02T01:42:33;89913.41;;;14.08;81.83
22649;BME280;11491;41.942;24.220;2022-08-02T01:45:03;89877.59;;;13.70;82.92
22649;BME280;11491;41.942;24.220;2022-08-02T01:47:34;89885.84;;;13.57;83.93
22649;BME280;11491;41.942;24.220;2022-08-02T01:50:05;89893.88;;;13.54;84.65
22649;BME280;11491;41.942;24.220;2022-08-02T01:52:35;89898.13;;;13.58;84.02
22649;BME280;11491;41.942;24.220;2022-08-02T01:55:06;89891.88;;;13.51;84.92
22649;BME280;11491;41.942;24.220;2022-08-02T01:57:38;89894.97;;;13.49;84.96
22649;BME280;11491;41.942;24.220;2022-08-02T02:00:08;89899.59;;;13.52;84.72
22649;BME280;11491;41.942;24.220;2022-08-02T02:02:37;89890.88;;;13.59;84.13
22649;BME280;11491;41.942;24.220;2022-08-02T02:05:08;89894.56;;;13.74;82.60
22649;BME280;11491;41.942;24.220;2022-08-02T02:07:37;89889.00;;;13.63;82.98
22649;BME280;11491;41.942;24.220;2022-08-02T02:10:05;89887.56;;;13.43;83.58
22649;BME280;11491;41.942;24.220;2022-08-02T02:12:35;89895.19;;;13.18;84.81
22649;BME280;11491;41.942;24.220;2022-08-02T02:15:04;89898.19;;;13.12;85.16
22649;BME280;11491;41.942;24.220;2022-08-02T02:17:33;89892.94;;;13.20;85.92
22649;BME280;11491;41.942;24.220;2022-08-02T02:20:02;89892.25;;;13.26;84.67
22649;BME280;11491;41.942;24.220;2022-08-02T02:22:29;89892.47;;;13.37;84.33
22649;BME280;11491;41.942;24.220;2022-08-02T02:24:56;89827.28;;;12.90;83.82
22649;BME280;11491;41.942;24.220;2022-08-02T02:27:23;89893.34;;;13.22;84.01
22649;BME280;11491;41.942;24.220;2022-08-02T02:29:51;89889.09;;;13.21;84.03
22649;BME280;11491;41.942;24.220;2022-08-02T02:32:21;89893.63;;;13.17;84.24
22649;BME280;11491;41.942;24.220;2022-08-02T02:34:50;89895.19;;;13.18;84.98
22649;BME280;11491;41.942;24.220;2022-08-02T02:37:19;89821.63;;;12.73;84.34
22649;BME280;11491;41.942;24.220;2022-08-02T02:39:49;89888.38;;;13.24;84.21
22649;BME280;11491;41.942;24.220;2022-08-02T02:42:17;89888.09;;;13.29;83.77
22649;BME280;11491;41.942;24.220;2022-08-02T02:44:46;89889.78;;;13.37;82.94
22649;BME280;11491;41.942;24.220;2022-08-02T02:47:14;89878.38;;;13.21;83.45
22649;BME280;11491;41.942;24.220;2022-08-02T02:49:44;89878.25;;;13.13;82.85
22649;BME280;11491;41.942;24.220;2022-08-02T02:52:14;89879.69;;;13.07;83.67
22649;BME280;11491;41.942;24.220;2022-08-02T02:54:42;89874.25;;;13.04;84.37
22649;BME280;11491;41.942;24.220;2022-08-02T02:57:09;89880.69;;;12.99;84.09
22649;BME280;11491;41.942;24.220;2022-08-02T02:59:38;89873.34;;;12.96;84.48
22649;BME280;11491;41.942;24.220;2022-08-02T03:02:05;89888.16;;;13.09;83.45
22649;BME280;11491;41.942;24.220;2022-08-02T03:04:34;89890.84;;;13.09;83.61
22649;BME280;11491;41.942;24.220;2022-08-02T03:07:03;89893.63;;;13.17;83.28
22649;BME280;11491;41.942;24.220;2022-08-02T03:09:31;89885.19;;;13.14;82.11
22649;BME280;11491;41.942;24.220;2022-08-02T03:11:58;89881.06;;;12.98;83.37
22649;BME280;11491;41.942;24.220;2022-08-02T03:14:25;89874.94;;;12.97;82.60
22649;BME280;11491;41.942;24.220;2022-08-02T03:16:53;89889.94;;;12.79;84.25
22649;BME280;11491;41.942;24.220;2022-08-02T03:19:21;89892.25;;;12.80;84.67
22649;BME280;11491;41.942;24.220;2022-08-02T03:21:49;89897.81;;;12.91;84.68
22649;BME280;11491;41.942;24.220;2022-08-02T03:24:16;89886.34;;;12.94;83.25
22649;BME280;11491;41.942;24.220;2022-08-02T03:26:45;89880.50;;;12.88;83.52
22649;BME280;11491;41.942;24.220;2022-08-02T03:29:12;89881.44;;;12.77;83.90
22649;BME280;11491;41.942;24.220;2022-08-02T03:31:40;89887.41;;;12.66;84.06
22649;BME280;11491;41.942;24.220;2022-08-02T03:34:09;89883.06;;;12.58;84.83
22649;BME280;11491;41.942;24.220;2022-08-02T03:36:36;89881.22;;;12.62;85.68
22649;BME280;11491;41.942;24.220;2022-08-02T03:39:05;89887.94;;;12.53;86.30
22649;BME280;11491;41.942;24.220;2022-08-02T03:41:34;89888.19;;;12.67;85.14
22649;BME280;11491;41.942;24.220;2022-08-02T03:44:04;89892.13;;;12.73;84.87
22649;BME280;11491;41.942;24.220;2022-08-02T03:46:33;89893.19;;;12.68;85.73
22649;BME280;11491;41.942;24.220;2022-08-02T03:49:04;89899.88;;;12.78;84.36
22649;BME280;11491;41.942;24.220;2022-08-02T03:51:32;89897.63;;;12.80;84.94
22649;BME280;11491;41.942;24.220;2022-08-02T03:54:00;89909.84;;;12.78;84.06
22649;BME280;11491;41.942;24.220;2022-08-02T03:56:27;89912.25;;;12.83;83.70
22649;BME280;11491;41.942;24.220;2022-08-02T03:59:06;89906.56;;;12.88;83.57
22649;BME280;11491;41.942;24.220;2022-08-02T04:01:33;89908.41;;;12.84;83.38
22649;BME280;11491;41.942;24.220;2022-08-02T04:04:00;89909.25;;;12.88;84.00
22649;BME280;11491;41.942;24.220;2022-08-02T04:06:27;89916.88;;;12.86;84.47
22649;BME280;11491;41.942;24.220;2022-08-02T04:08:53;89910.09;;;12.92;84.18
22649;BME280;11491;41.942;24.220;2022-08-02T04:11:20;89911.50;;;12.86;84.37
22649;BME280;11491;41.942;24.220;2022-08-02T04:13:55;89917.91;;;13.01;84.43
22649;BME280;11491;41.942;24.220;2022-08-02T04:16:28;89909.34;;;13.14;83.91
22649;BME280;11491;41.942;24.220;2022-08-02T04:18:59;89906.34;;;13.20;84.47
22649;BME280;11491;41.942;24.220;2022-08-02T04:21:31;89904.63;;;13.31;84.56
22649;BME280;11491;41.942;24.220;2022-08-02T04:24:01;89908.69;;;13.44;84.39
22649;BME280;11491;41.942;24.220;2022-08-02T04:26:30;89898.88;;;13.55;83.67
22649;BME280;11491;41.942;24.220;2022-08-02T04:28:58;89899.94;;;13.74;81.70
22649;BME280;11491;41.942;24.220;2022-08-02T04:31:27;89868.91;;;13.53;80.87
22649;BME280;11491;41.942;24.220;2022-08-02T04:33:54;89903.31;;;13.97;80.59
22649;BME280;11491;41.942;24.220;2022-08-02T04:36:22;89906.69;;;14.21;80.38
22649;BME280;11491;41.942;24.220;2022-08-02T04:38:49;89906.16;;;14.38;80.63
22649;BME280;11491;41.942;24.220;2022-08-02T04:41:16;89908.50;;;14.43;80.22
22649;BME280;11491;41.942;24.220;2022-08-02T04:43:43;89899.50;;;14.59;79.31
22649;BME280;11491;41.942;24.220;2022-08-02T04:46:09;89904.38;;;14.83;77.80
22649;BME280;11491;41.942;24.220;2022-08-02T04:48:38;89900.75;;;15.06;77.45
22649;BME280;11491;41.942;24.220;2022-08-02T04:51:04;89897.72;;;15.11;76.55
22649;BME280;11491;41.942;24.220;2022-08-02T04:53:31;89891.72;;;15.28;75.45
22649;BME280;11491;41.942;24.220;2022-08-02T04:55:59;89896.53;;;15.53;75.46
22649;BME280;11491;41.942;24.220;2022-08-02T04:58:25;89899.03;;;15.73;75.40
22649;BME280;11491;41.942;24.220;2022-08-02T05:00:52;89896.81;;;15.89;74.83
22649;BME280;11491;41.942;24.220;2022-08-02T05:03:19;89902.31;;;16.07;73.93
22649;BME280;11491;41.942;24.220;2022-08-02T05:05:47;89900.88;;;16.24;72.48
22649;BME280;11491;41.942;24.220;2022-08-02T05:08:14;89900.16;;;16.34;72.47
22649;BME280;11491;41.942;24.220;2022-08-02T05:10:41;89907.94;;;16.50;70.43
22649;BME280;11491;41.942;24.220;2022-08-02T05:13:07;89908.78;;;16.72;68.37
22649;BME280;11491;41.942;24.220;2022-08-02T05:15:34;89900.00;;;16.82;66.26
22649;BME280;11491;41.942;24.220;2022-08-02T05:18:01;89897.28;;;16.86;65.80
22649;BME280;11491;41.942;24.220;2022-08-02T05:20:28;89898.88;;;16.97;65.74
22649;BME280;11491;41.942;24.220;2022-08-02T05:22:56;89892.72;;;17.08;65.20
22649;BME280;11491;41.942;24.220;2022-08-02T05:25:23;89903.56;;;17.33;64.70
22649;BME280;11491;41.942;24.220;2022-08-02T05:27:49;89889.69;;;17.49;65.19
22649;BME280;11491;41.942;24.220;2022-08-02T05:30:16;89896.63;;;17.71;63.59
22649;BME280;11491;41.942;24.220;2022-08-02T05:32:45;89884.28;;;17.70;63.48
22649;BME280;11491;41.942;24.220;2022-08-02T05:35:12;89894.34;;;17.80;62.49
22649;BME280;11491;41.942;24.220;2022-08-02T05:37:38;89898.97;;;18.01;62.69
22649;BME280;11491;41.942;24.220;2022-08-02T05:40:08;89902.03;;;18.28;64.07
22649;BME280;11491;41.942;24.220;2022-08-02T05:42:35;89894.22;;;18.52;65.95
22649;BME280;11491;41.942;24.220;2022-08-02T05:45:02;89903.41;;;18.72;61.87
22649;BME280;11491;41.942;24.220;2022-08-02T05:47:29;89894.50;;;18.86;61.38
22649;BME280;11491;41.942;24.220;2022-08-02T05:49:56;89896.88;;;18.77;60.54
22649;BME280;11491;41.942;24.220;2022-08-02T05:52:24;89892.94;;;18.85;59.97
22649;BME280;11491;41.942;24.220;2022-08-02T05:54:56;89894.06;;;18.95;61.70
22649;BME280;11491;41.942;24.220;2022-08-02T05:57:35;89893.22;;;19.12;60.31
22649;BME280;11491;41.942;24.220;2022-08-02T06:00:05;89897.75;;;19.33;60.16
22649;BME280;11491;41.942;24.220;2022-08-02T06:02:43;89898.38;;;19.55;59.10
22649;BME280;11491;41.942;24.220;2022-08-02T06:05:11;89899.81;;;19.78;59.14
22649;BME280;11491;41.942;24.220;2022-08-02T06:07:40;89892.97;;;20.08;58.53
22649;BME280;11491;41.942;24.220;2022-08-02T06:10:08;89906.25;;;20.36;55.99
22649;BME280;11491;41.942;24.220;2022-08-02T06:12:43;89895.22;;;20.58;54.58
22649;BME280;11491;41.942;24.220;2022-08-02T06:15:13;89906.72;;;20.69;49.55
22649;BME280;11491;41.942;24.220;2022-08-02T06:17:41;89907.75;;;20.82;48.43
22649;BME280;11491;41.942;24.220;2022-08-02T06:20:10;89915.00;;;20.93;50.85
22649;BME280;11491;41.942;24.220;2022-08-02T06:22:39;89910.69;;;20.61;46.53
22649;BME280;11491;41.942;24.220;2022-08-02T06:25:07;89914.69;;;20.46;48.35
22649;BME280;11491;41.942;24.220;2022-08-02T06:27:34;89920.03;;;20.60;54.30
22649;BME280;11491;41.942;24.220;2022-08-02T06:30:03;89918.19;;;20.84;53.75
22649;BME280;11491;41.942;24.220;2022-08-02T06:32:31;89926.34;;;20.84;48.67
22649;BME280;11491;41.942;24.220;2022-08-02T06:34:58;89884.88;;;20.80;51.42
22649;BME280;11491;41.942;24.220;2022-08-02T06:37:26;89917.91;;;21.09;52.03
22649;BME280;11491;41.942;24.220;2022-08-02T06:40:02;89913.19;;;21.13;46.17
22649;BME280;11491;41.942;24.220;2022-08-02T06:42:36;89928.69;;;21.16;46.25
22649;BME280;11491;41.942;24.220;2022-08-02T06:45:11;89923.44;;;21.02;46.11
22649;BME280;11491;41.942;24.220;2022-08-02T06:47:38;89921.19;;;20.97;48.81
22649;BME280;11491;41.942;24.220;2022-08-02T06:50:05;89914.03;;;21.10;47.36
22649;BME280;11491;41.942;24.220;2022-08-02T06:52:32;89910.00;;;21.22;47.97
22649;BME280;11491;41.942;24.220;2022-08-02T06:55:01;89924.56;;;21.35;46.56
22649;BME280;11491;41.942;24.220;2022-08-02T06:57:29;89916.09;;;21.29;46.64
22649;BME280;11491;41.942;24.220;2022-08-02T06:59:56;89916.66;;;21.17;46.62
22649;BME280;11491;41.942;24.220;2022-08-02T07:02:27;89915.38;;;21.25;46.08
22649;BME280;11491;41.942;24.220;2022-08-02T07:04:54;89919.19;;;21.32;44.29
22649;BME280;11491;41.942;24.220;2022-08-02T07:07:21;89922.63;;;21.05;45.56
22649;BME280;11491;41.942;24.220;2022-08-02T07:09:48;89926.84;;;21.10;45.94
22649;BME280;11491;41.942;24.220;2022-08-02T07:12:15;89912.38;;;21.16;46.52
22649;BME280;11491;41.942;24.220;2022-08-02T07:14:42;89918.53;;;21.20;43.99
22649;BME280;11491;41.942;24.220;2022-08-02T07:17:09;89917.19;;;21.05;43.73
22649;BME280;11491;41.942;24.220;2022-08-02T07:19:37;89916.75;;;21.10;45.43
22649;BME280;11491;41.942;24.220;2022-08-02T07:22:04;89911.13;;;21.24;45.09
22649;BME280;11491;41.942;24.220;2022-08-02T07:24:31;89905.56;;;21.04;45.47
22649;BME280;11491;41.942;24.220;2022-08-02T07:26:58;89921.81;;;21.08;46.17
22649;BME280;11491;41.942;24.220;2022-08-02T07:29:25;89905.22;;;21.29;47.35
22649;BME280;11491;41.942;24.220;2022-08-02T07:31:52;89914.19;;;21.57;46.24
22649;BME280;11491;41.942;24.220;2022-08-02T07:34:19;89916.09;;;21.87;47.01
22649;BME280;11491;41.942;24.220;2022-08-02T07:36:47;89910.97;;;22.17;46.85
22649;BME280;11491;41.942;24.220;2022-08-02T07:39:14;89908.22;;;22.44;46.31
22649;BME280;11491;41.942;24.220;2022-08-02T07:41:40;89911.53;;;22.75;47.96
22649;BME280;11491;41.942;24.220;2022-08-02T07:44:07;89910.44;;;22.92;44.89
22649;BME280;11491;41.942;24.220;2022-08-02T07:46:34;89898.53;;;22.63;43.31
22649;BME280;11491;41.942;24.220;2022-08-02T07:49:01;89911.78;;;22.13;44.22
22649;BME280;11491;41.942;24.220;2022-08-02T07:51:28;89915.22;;;21.94;44.95
22649;BME280;11491;41.942;24.220;2022-08-02T07:53:57;89918.91;;;22.07;47.94
22649;BME280;11491;41.942;24.220;2022-08-02T07:56:24;89923.47;;;22.14;45.38
22649;BME280;11491;41.942;24.220;2022-08-02T07:58:50;89929.66;;;22.14;43.93
22649;BME280;11491;41.942;24.220;2022-08-02T08:01:18;89931.31;;;22.08;45.56
22649;BME280;11491;41.942;24.220;2022-08-02T08:03:45;89921.88;;;22.17;44.65
22649;BME280;11491;41.942;24.220;2022-08-02T08:06:12;89924.03;;;22.29;45.75
22649;BME280;11491;41.942;24.220;2022-08-02T08:08:39;89920.72;;;22.41;43.75
22649;BME280;11491;41.942;24.220;2022-08-02T08:11:07;89927.69;;;22.42;44.87
22649;BME280;11491;41.942;24.220;2022-08-02T08:13:34;89924.84;;;22.26;44.28
22649;BME280;11491;41.942;24.220;2022-08-02T08:16:00;89934.03;;;22.08;44.50
22649;BME280;11491;41.942;24.220;2022-08-02T08:18:28;89932.38;;;22.14;48.07
22649;BME280;11491;41.942;24.220;2022-08-02T08:20:55;89931.94;;;22.20;43.14
22649;BME280;11491;41.942;24.220;2022-08-02T08:23:22;89916.66;;;22.02;44.57
22649;BME280;11491;41.942;24.220;2022-08-02T08:25:49;89926.94;;;22.14;44.44
22649;BME280;11491;41.942;24.220;2022-08-02T08:28:17;89930.75;;;22.21;45.18
22649;BME280;11491;41.942;24.220;2022-08-02T08:30:44;89926.16;;;22.41;45.26
22649;BME280;11491;41.942;24.220;2022-08-02T08:33:11;89919.16;;;22.40;42.92
22649;BME280;11491;41.942;24.220;2022-08-02T08:35:38;89933.13;;;22.42;42.92
22649;BME280;11491;41.942;24.220;2022-08-02T08:38:05;89930.47;;;22.39;43.54
22649;BME280;11491;41.942;24.220;2022-08-02T08:40:32;89931.72;;;22.34;44.83
22649;BME280;11491;41.942;24.220;2022-08-02T08:42:59;89934.28;;;22.18;43.77
22649;BME280;11491;41.942;24.220;2022-08-02T08:45:27;89924.06;;;22.25;44.54
22649;BME280;11491;41.942;24.220;2022-08-02T08:47:59;89925.78;;;22.63;46.60
22649;BME280;11491;41.942;24.220;2022-08-02T08:50:29;89933.66;;;22.57;46.13
22649;BME280;11491;41.942;24.220;2022-08-02T08:53:02;89927.03;;;22.78;45.76
22649;BME280;11491;41.942;24.220;2022-08-02T08:55:29;89929.22;;;22.87;45.38
22649;BME280;11491;41.942;24.220;2022-08-02T08:57:57;89928.56;;;23.03;45.52
22649;BME280;11491;41.942;24.220;2022-08-02T09:00:25;89927.31;;;23.27;46.25
22649;BME280;11491;41.942;24.220;2022-08-02T09:02:53;89922.34;;;23.22;44.70
22649;BME280;11491;41.942;24.220;2022-08-02T09:05:20;89923.19;;;23.19;41.84
22649;BME280;11491;41.942;24.220;2022-08-02T09:07:48;89925.50;;;23.40;48.03
22649;BME280;11491;41.942;24.220;2022-08-02T09:10:32;89922.13;;;23.53;42.13
22649;BME280;11491;41.942;24.220;2022-08-02T09:13:09;89918.06;;;23.41;42.59
22649;BME280;11491;41.942;24.220;2022-08-02T09:15:37;89929.84;;;23.38;43.30
22649;BME280;11491;41.942;24.220;2022-08-02T09:18:06;89930.28;;;23.33;46.36
22649;BME280;11491;41.942;24.220;2022-08-02T09:20:34;89926.94;;;23.25;45.64
22649;BME280;11491;41.942;24.220;2022-08-02T09:23:07;89922.56;;;23.31;47.82
22649;BME280;11491;41.942;24.220;2022-08-02T09:25:35;89916.91;;;23.78;48.44
22649;BME280;11491;41.942;24.220;2022-08-02T09:28:03;89921.44;;;24.34;48.35
22649;BME280;11491;41.942;24.220;2022-08-02T09:30:30;89909.41;;;24.64;44.71
22649;BME280;11491;41.942;24.220;2022-08-02T09:32:57;89918.22;;;25.01;44.56
22649;BME280;11491;41.942;24.220;2022-08-02T09:35:33;89913.63;;;25.27;42.97
22649;BME280;11491;41.942;24.220;2022-08-02T09:38:08;89914.38;;;24.99;41.76
22649;BME280;11491;41.942;24.220;2022-08-02T09:40:36;89902.09;;;24.90;43.14
22649;BME280;11491;41.942;24.220;2022-08-02T09:43:03;89919.97;;;24.79;42.95
22649;BME280;11491;41.942;24.220;2022-08-02T09:45:30;89915.72;;;24.78;42.73
22649;BME280;11491;41.942;24.220;2022-08-02T09:47:59;89919.66;;;25.06;42.20
22649;BME280;11491;41.942;24.220;2022-08-02T09:50:26;89915.75;;;25.49;44.70
22649;BME280;11491;41.942;24.220;2022-08-02T09:52:55;89915.16;;;25.83;40.75
22649;BME280;11491;41.942;24.220;2022-08-02T09:55:23;89923.69;;;25.72;42.43
22649;BME280;11491;41.942;24.220;2022-08-02T09:57:50;89923.19;;;25.48;39.66
22649;BME280;11491;41.942;24.220;2022-08-02T10:00:17;89921.53;;;25.38;39.93
22649;BME280;11491;41.942;24.220;2022-08-02T10:03:06;89921.88;;;25.40;41.15
22649;BME280;11491;41.942;24.220;2022-08-02T10:05:50;89918.59;;;25.45;41.40
22649;BME280;11491;41.942;24.220;2022-08-02T10:08:20;89926.59;;;25.52;40.85
22649;BME280;11491;41.942;24.220;2022-08-02T10:10:47;89916.38;;;25.82;42.71
22649;BME280;11491;41.942;24.220;2022-08-02T10:13:26;89924.50;;;26.11;38.59
22649;BME280;11491;41.942;24.220;2022-08-02T10:15:54;89920.69;;;26.09;40.07
22649;BME280;11491;41.942;24.220;2022-08-02T10:18:21;89925.59;;;26.27;39.24
22649;BME280;11491;41.942;24.220;2022-08-02T10:20:49;89911.53;;;26.37;41.34
22649;BME280;11491;41.942;24.220;2022-08-02T10:23:20;89911.41;;;26.67;39.38
22649;BME280;11491;41.942;24.220;2022-08-02T10:25:50;89914.91;;;26.67;37.72
22649;BME280;11491;41.942;24.220;2022-08-02T10:28:19;89886.47;;;26.00;38.82
22649;BME280;11491;41.942;24.220;2022-08-02T10:30:52;89911.88;;;26.39;37.90
22649;BME280;11491;41.942;24.220;2022-08-02T10:33:21;89923.09;;;26.80;39.13
22649;BME280;11491;41.942;24.220;2022-08-02T10:35:52;89912.56;;;26.91;40.46
22649;BME280;11491;41.942;24.220;2022-08-02T10:38:23;89929.41;;;27.02;37.71
22649;BME280;11491;41.942;24.220;2022-08-02T10:40:53;89918.38;;;27.28;36.97
22649;BME280;11491;41.942;24.220;2022-08-02T10:43:47;89911.72;;;27.60;36.81
22649;BME280;11491;41.942;24.220;2022-08-02T10:46:29;89913.06;;;26.99;33.76
22649;BME280;11491;41.942;24.220;2022-08-02T10:49:05;89920.78;;;27.26;37.37
22649;BME280;11491;41.942;24.220;2022-08-02T10:51:55;89924.03;;;27.78;37.31
22649;BME280;11491;41.942;24.220;2022-08-02T10:54:25;89920.50;;;27.99;37.62
22649;BME280;11491;41.942;24.220;2022-08-02T10:56:53;89912.84;;;28.25;39.43
22649;BME280;11491;41.942;24.220;2022-08-02T10:59:23;89913.06;;;28.49;36.68
22649;BME280;11491;41.942;24.220;2022-08-02T11:01:50;89906.88;;;28.76;36.28
22649;BME280;11491;41.942;24.220;2022-08-02T11:04:17;89912.84;;;28.75;36.65
22649;BME280;11491;41.942;24.220;2022-08-02T11:07:08;89915.56;;;28.66;34.56
22649;BME280;11491;41.942;24.220;2022-08-02T11:09:37;89911.31;;;28.83;34.83
22649;BME280;11491;41.942;24.220;2022-08-02T11:12:05;89910.69;;;28.70;35.75
22649;BME280;11491;41.942;24.220;2022-08-02T11:14:35;89898.47;;;28.71;37.14
22649;BME280;11491;41.942;24.220;2022-08-02T11:17:07;89898.78;;;28.73;34.08
22649;BME280;11491;41.942;24.220;2022-08-02T11:19:34;89901.84;;;28.93;34.77
22649;BME280;11491;41.942;24.220;2022-08-02T11:22:21;89896.22;;;28.38;33.99
22649;BME280;11491;41.942;24.220;2022-08-02T11:24:49;89896.56;;;27.78;35.34
22649;BME280;11491;41.942;24.220;2022-08-02T11:27:18;89901.59;;;27.79;37.79
22649;BME280;11491;41.942;24.220;2022-08-02T11:29:46;89899.00;;;27.76;35.83
22649;BME280;11491;41.942;24.220;2022-08-02T11:32:17;89900.66;;;27.95;37.66
22649;BME280;11491;41.942;24.220;2022-08-02T11:34:46;89901.50;;;27.83;35.54
22649;BME280;11491;41.942;24.220;2022-08-02T11:37:26;89878.88;;;27.79;36.01
22649;BME280;11491;41.942;24.220;2022-08-02T11:39:54;89891.34;;;28.02;34.06
22649;BME280;11491;41.942;24.220;2022-08-02T11:42:21;89895.28;;;28.23;35.87
22649;BME280;11491;41.942;24.220;2022-08-02T11:44:56;89898.94;;;28.29;34.18
22649;BME280;11491;41.942;24.220;2022-08-02T11:47:23;89896.41;;;28.03;35.90
22649;BME280;11491;41.942;24.220;2022-08-02T11:49:49;89870.44;;;27.42;34.39
22649;BME280;11491;41.942;24.220;2022-08-02T11:52:17;89899.09;;;27.19;36.77
22649;BME280;11491;41.942;24.220;2022-08-02T11:54:44;89892.50;;;27.16;37.70
22649;BME280;11491;41.942;24.220;2022-08-02T11:57:16;89893.84;;;27.78;36.77
22649;BME280;11491;41.942;24.220;2022-08-02T11:59:44;89888.66;;;28.51;35.70
22649;BME280;11491;41.942;24.220;2022-08-02T12:02:11;89875.38;;;28.09;34.92
22649;BME280;11491;41.942;24.220;2022-08-02T12:04:39;89915.41;;;27.22;36.75
22649;BME280;11491;41.942;24.220;2022-08-02T12:07:06;89913.41;;;26.40;37.97
22649;BME280;11491;41.942;24.220;2022-08-02T12:09:34;89900.06;;;26.17;39.94
22649;BME280;11491;41.942;24.220;2022-08-02T12:12:02;89892.09;;;26.70;39.93
22649;BME280;11491;41.942;24.220;2022-08-02T12:14:31;89909.69;;;27.30;38.81
22649;BME280;11491;41.942;24.220;2022-08-02T12:16:58;89914.38;;;27.95;40.02
22649;BME280;11491;41.942;24.220;2022-08-02T12:19:43;89913.09;;;28.59;36.67
22649;BME280;11491;41.942;24.220;2022-08-02T12:22:15;89911.38;;;29.11;35.89
22649;BME280;11491;41.942;24.220;2022-08-02T12:24:46;89913.81;;;29.46;33.33
22649;BME280;11491;41.942;24.220;2022-08-02T12:27:30;89917.19;;;29.22;33.24
22649;BME280;11491;41.942;24.220;2022-08-02T12:30:01;89920.38;;;29.02;35.13
22649;BME280;11491;41.942;24.220;2022-08-02T12:32:28;89920.38;;;29.02;33.90
22649;BME280;11491;41.942;24.220;2022-08-02T12:35:10;89914.88;;;29.02;34.91
22649;BME280;11491;41.942;24.220;2022-08-02T12:37:38;89904.06;;;29.17;35.45
22649;BME280;11491;41.942;24.220;2022-08-02T12:40:22;89912.75;;;29.71;33.40
22649;BME280;11491;41.942;24.220;2022-08-02T12:42:52;89915.66;;;29.76;33.43
22649;BME280;11491;41.942;24.220;2022-08-02T12:45:21;89914.13;;;29.57;32.86
22649;BME280;11491;41.942;24.220;2022-08-02T12:47:49;89900.34;;;29.02;32.80
22649;BME280;11491;41.942;24.220;2022-08-02T12:50:18;89906.59;;;28.34;34.12
22649;BME280;11491;41.942;24.220;2022-08-02T12:52:46;89911.00;;;27.91;35.59
22649;BME280;11491;41.942;24.220;2022-08-02T12:55:17;89915.16;;;27.30;37.05
22649;BME280;11491;41.942;24.220;2022-08-02T12:57:58;89907.19;;;27.22;38.09
22649;BME280;11491;41.942;24.220;2022-08-02T13:00:28;89886.31;;;27.47;37.94
22649;BME280;11491;41.942;24.220;2022-08-02T13:02:55;89903.47;;;28.13;37.05